createdAt,value
2023-01-22T00:01:09.296Z,-2.05
2023-01-22T00:03:41.020Z,-2.12
2023-01-22T00:06:09.463Z,-2.00
2023-01-22T00:08:37.000Z,-2.02
2023-01-22T00:11:04.587Z,-2.03
2023-01-22T00:13:31.606Z,-2.02
2023-01-22T00:15:59.959Z,-1.98
2023-01-22T00:18:27.218Z,-2.03
2023-01-22T00:20:55.372Z,-2.02
2023-01-22T00:23:23.379Z,-2.04
2023-01-22T00:25:50.978Z,-2.08
2023-01-22T00:28:17.743Z,-2.02
2023-01-22T00:30:44.534Z,-1.98
2023-01-22T00:33:11.626Z,-1.99
2023-01-22T00:35:38.790Z,-2.05
2023-01-22T00:38:06.259Z,-2.00
2023-01-22T00:40:32.998Z,-1.98
2023-01-22T00:42:59.793Z,-2.09
2023-01-22T00:45:26.503Z,-2.02
2023-01-22T00:47:53.293Z,-2.00
2023-01-22T00:50:20.198Z,-1.95
2023-01-22T00:52:47.238Z,-2.06
2023-01-22T00:55:13.978Z,-1.96
2023-01-22T00:57:40.719Z,-1.98
2023-01-22T01:00:09.073Z,-1.90
2023-01-22T01:02:58.980Z,-1.98
2023-01-22T01:05:26.448Z,-2.00
2023-01-22T01:07:53.264Z,-1.93
2023-01-22T01:10:20.712Z,-1.97
2023-01-22T01:12:47.640Z,-2.00
2023-01-22T01:15:14.372Z,-2.01
2023-01-22T01:17:41.127Z,-2.00
2023-01-22T01:20:08.760Z,-1.95
2023-01-22T01:22:35.647Z,-2.06
2023-01-22T01:25:02.474Z,-2.02
2023-01-22T01:27:31.771Z,-2.10
2023-01-22T01:29:59.282Z,-1.97
2023-01-22T01:32:26.145Z,-2.01
2023-01-22T01:34:52.918Z,-2.03
2023-01-22T01:37:19.740Z,-2.06
2023-01-22T01:39:48.029Z,-2.01
2023-01-22T01:42:14.824Z,-2.04
2023-01-22T01:44:43.154Z,-2.03
2023-01-22T01:47:34.739Z,-2.04
2023-01-22T01:50:02.051Z,-2.07
2023-01-22T01:52:28.808Z,-2.01
2023-01-22T01:54:58.023Z,-2.07
2023-01-22T01:57:30.639Z,-2.01
2023-01-22T01:59:58.122Z,-2.08
2023-01-22T02:02:25.079Z,-1.98
2023-01-22T02:04:53.758Z,-2.02
2023-01-22T02:07:20.774Z,-1.98
2023-01-22T02:09:47.687Z,-2.03
2023-01-22T02:12:14.552Z,-1.98
2023-01-22T02:14:45.996Z,-2.03
2023-01-22T02:17:21.707Z,-1.99
2023-01-22T02:19:48.781Z,-2.00
2023-01-22T02:22:22.758Z,-1.84
2023-01-22T02:24:50.257Z,-1.85
2023-01-22T02:27:17.035Z,-1.90
2023-01-22T02:29:43.839Z,-1.95
2023-01-22T02:32:10.731Z,-1.98
2023-01-22T02:34:37.676Z,-1.96
2023-01-22T02:37:04.876Z,-1.85
2023-01-22T02:39:31.784Z,-1.84
2023-01-22T02:41:58.865Z,-1.92
2023-01-22T02:44:25.699Z,-1.87
2023-01-22T02:46:52.454Z,-1.93
2023-01-22T02:49:19.200Z,-1.95
2023-01-22T02:51:46.006Z,-1.99
2023-01-22T02:54:12.747Z,-1.83
2023-01-22T02:56:39.564Z,-1.84
2023-01-22T02:59:06.393Z,-1.85
2023-01-22T03:01:33.321Z,-1.86
2023-01-22T03:04:11.012Z,-1.84
2023-01-22T03:06:44.062Z,-1.88
2023-01-22T03:09:13.401Z,-1.86
2023-01-22T03:11:42.359Z,-1.88
2023-01-22T03:14:27.953Z,-1.81
2023-01-22T03:17:13.739Z,-1.85
2023-01-22T03:19:59.312Z,-1.89
2023-01-22T03:22:26.129Z,-1.88
2023-01-22T03:24:53.692Z,-1.90
2023-01-22T03:27:23.733Z,-1.85
2023-01-22T03:29:50.950Z,-1.86
2023-01-22T03:32:18.448Z,-1.83
2023-01-22T03:34:45.415Z,-1.92
2023-01-22T03:37:15.341Z,-1.87
2023-01-22T03:39:42.432Z,-1.92
2023-01-22T03:42:09.355Z,-2.00
2023-01-22T03:44:36.126Z,-1.94
2023-01-22T03:47:03.076Z,-1.89
2023-01-22T03:49:29.894Z,-1.93
2023-01-22T03:51:57.219Z,-1.97
2023-01-22T03:54:23.967Z,-1.98
2023-01-22T03:56:50.685Z,-1.99
2023-01-22T03:59:17.440Z,-2.04
2023-01-22T04:01:44.432Z,-1.89
2023-01-22T04:04:11.220Z,-1.88
2023-01-22T04:06:37.929Z,-1.85
2023-01-22T04:09:04.703Z,-1.92
2023-01-22T04:11:31.489Z,-1.95
2023-01-22T04:13:58.248Z,-1.94
2023-01-22T04:16:25.060Z,-2.03
2023-01-22T04:18:51.822Z,-1.92
2023-01-22T04:21:18.562Z,-1.87
2023-01-22T04:23:45.396Z,-1.88
2023-01-22T04:26:12.272Z,-1.85
2023-01-22T04:28:39.018Z,-2.16
2023-01-22T04:31:06.240Z,-2.03
2023-01-22T04:33:33.035Z,-2.02
2023-01-22T04:35:59.826Z,-1.90
2023-01-22T04:38:26.591Z,-2.01
2023-01-22T04:40:53.323Z,-1.93
2023-01-22T04:43:20.249Z,-1.93
2023-01-22T04:45:46.977Z,-1.85
2023-01-22T04:48:14.149Z,-1.84
2023-01-22T04:50:40.919Z,-1.87
2023-01-22T04:53:07.683Z,-1.93
2023-01-22T04:55:34.609Z,-1.87
2023-01-22T04:58:02.467Z,-1.95
2023-01-22T05:00:31.081Z,-1.86
2023-01-22T05:03:00.359Z,-1.87
2023-01-22T05:05:28.203Z,-1.80
2023-01-22T05:07:55.216Z,-1.80
2023-01-22T05:10:22.697Z,-1.84
2023-01-22T05:12:50.540Z,-1.83
2023-01-22T05:15:24.481Z,-1.90
2023-01-22T05:17:53.169Z,-1.77
2023-01-22T05:20:21.227Z,-1.90
2023-01-22T05:22:48.164Z,-1.88
2023-01-22T05:25:15.005Z,-1.92
2023-01-22T05:27:41.816Z,-1.89
2023-01-22T05:30:10.213Z,-2.00
2023-01-22T05:32:37.227Z,-1.91
2023-01-22T05:35:06.077Z,-1.88
2023-01-22T05:37:33.056Z,-1.83
2023-01-22T05:39:59.836Z,-1.88
2023-01-22T05:42:26.618Z,-1.82
2023-01-22T05:44:53.379Z,-1.89
2023-01-22T05:47:20.260Z,-1.80
2023-01-22T05:49:46.986Z,-1.77
2023-01-22T05:52:13.760Z,-1.85
2023-01-22T05:54:40.519Z,-1.73
2023-01-22T05:57:07.962Z,-1.80
2023-01-22T05:59:34.795Z,-1.77
2023-01-22T06:02:02.020Z,-1.83
2023-01-22T06:04:29.439Z,-1.80
2023-01-22T06:06:56.213Z,-1.73
2023-01-22T06:09:23.515Z,-1.77
2023-01-22T06:11:50.348Z,-1.81
2023-01-22T06:14:17.137Z,-1.82
2023-01-22T06:16:43.965Z,-1.76
2023-01-22T06:19:10.983Z,-1.82
2023-01-22T06:21:37.679Z,-1.80
2023-01-22T06:24:04.712Z,-1.78
2023-01-22T06:26:31.555Z,-1.76
2023-01-22T06:28:58.318Z,-1.85
2023-01-22T06:31:25.392Z,-1.82
2023-01-22T06:33:54.701Z,-1.77
2023-01-22T06:36:21.515Z,-1.85
2023-01-22T06:38:48.474Z,-1.78
2023-01-22T06:41:15.254Z,-2.05
2023-01-22T06:43:42.031Z,-1.83
2023-01-22T06:46:08.925Z,-2.01
2023-01-22T06:48:35.780Z,-1.86
2023-01-22T06:51:02.625Z,-1.78
2023-01-22T06:53:29.515Z,-2.07
2023-01-22T06:55:59.733Z,-1.92
2023-01-22T06:58:26.506Z,-1.86
2023-01-22T07:00:53.266Z,-1.84
2023-01-22T07:03:20.089Z,-2.00
2023-01-22T07:05:46.937Z,-1.82
2023-01-22T07:08:15.702Z,-1.95
2023-01-22T07:10:42.713Z,-1.86
2023-01-22T07:13:10.390Z,-1.84
2023-01-22T07:15:37.189Z,-1.83
2023-01-22T07:18:04.187Z,-1.75
2023-01-22T07:20:31.234Z,-1.85
2023-01-22T07:23:00.169Z,-1.97
2023-01-22T07:25:28.081Z,-1.77
2023-01-22T07:28:03.408Z,-1.74
2023-01-22T07:30:30.464Z,-1.76
2023-01-22T07:33:02.049Z,-1.72
2023-01-22T07:35:29.729Z,-1.68
2023-01-22T07:37:59.245Z,-1.66
2023-01-22T07:40:26.821Z,-1.87
2023-01-22T07:42:54.839Z,-1.88
2023-01-22T07:45:24.627Z,-1.73
2023-01-22T07:47:56.493Z,-1.73
2023-01-22T07:50:30.324Z,-1.58
2023-01-22T07:52:57.583Z,-1.51
2023-01-22T07:55:24.460Z,-1.61
2023-01-22T07:57:59.853Z,-1.52
2023-01-22T08:00:27.008Z,-1.52
2023-01-22T08:02:53.828Z,-1.48
2023-01-22T08:05:21.004Z,-1.38
2023-01-22T08:07:47.777Z,-1.48
2023-01-22T08:10:15.364Z,-1.36
2023-01-22T08:12:46.117Z,-1.38
2023-01-22T08:15:13.968Z,-1.25
2023-01-22T08:17:41.020Z,-1.34
2023-01-22T08:20:09.929Z,-1.27
2023-01-22T08:22:36.803Z,-1.24
2023-01-22T08:25:03.710Z,-1.23
2023-01-22T08:27:30.548Z,-1.13
2023-01-22T08:29:57.377Z,-1.32
2023-01-22T08:32:24.446Z,-1.18
2023-01-22T08:34:54.294Z,-1.11
2023-01-22T08:37:24.452Z,-1.07
2023-01-22T08:39:51.216Z,-1.18
2023-01-22T08:42:18.053Z,-1.34
2023-01-22T08:44:44.819Z,-1.01
2023-01-22T08:47:11.681Z,-0.86
2023-01-22T08:49:38.497Z,-0.68
2023-01-22T08:52:05.635Z,-0.77
2023-01-22T08:54:32.492Z,-0.72
2023-01-22T08:56:59.270Z,-0.70
2023-01-22T08:59:26.071Z,-0.85
2023-01-22T09:01:53.087Z,-0.85
2023-01-22T09:04:20.072Z,-0.73
2023-01-22T09:06:46.824Z,-0.61
2023-01-22T09:09:13.719Z,-0.56
2023-01-22T09:11:40.942Z,-0.67
2023-01-22T09:14:09.851Z,-0.33
2023-01-22T09:16:37.374Z,-0.28
2023-01-22T09:19:05.170Z,-0.15
2023-01-22T09:21:33.931Z,-0.05
2023-01-22T09:24:01.039Z,0.27
2023-01-22T09:26:27.878Z,0.29
2023-01-22T09:28:54.633Z,0.28
2023-01-22T09:31:21.626Z,0.24
2023-01-22T09:33:48.398Z,0.28
2023-01-22T09:36:16.950Z,0.31
2023-01-22T09:38:44.517Z,0.36
2023-01-22T09:41:16.201Z,0.33
2023-01-22T09:44:10.695Z,0.40
2023-01-22T09:46:44.502Z,0.38
2023-01-22T09:49:20.444Z,0.48
2023-01-22T09:51:54.367Z,0.45
2023-01-22T09:54:21.531Z,0.46
2023-01-22T09:56:52.883Z,0.62
2023-01-22T09:59:47.151Z,0.66
2023-01-22T10:02:32.050Z,0.71
2023-01-22T10:05:26.245Z,0.65
2023-01-22T10:08:05.088Z,0.56
2023-01-22T10:10:33.479Z,0.46
2023-01-22T10:13:23.744Z,0.79
2023-01-22T10:15:54.796Z,0.78
2023-01-22T10:18:27.377Z,0.87
2023-01-22T10:20:55.817Z,0.87
2023-01-22T10:23:25.799Z,0.91
2023-01-22T10:26:15.231Z,0.98
2023-01-22T10:28:49.187Z,0.88
2023-01-22T10:31:33.700Z,1.05
2023-01-22T10:34:11.765Z,0.91
2023-01-22T10:36:38.533Z,0.91
2023-01-22T10:39:10.874Z,1.03
2023-01-22T10:41:38.487Z,0.92
2023-01-22T10:44:25.993Z,1.03
2023-01-22T10:46:55.209Z,0.96
2023-01-22T10:49:25.727Z,1.10
2023-01-22T10:51:56.333Z,1.06
2023-01-22T10:54:35.244Z,1.06
2023-01-22T10:57:40.677Z,1.14
2023-01-22T11:00:16.343Z,1.33
2023-01-22T11:02:48.916Z,1.47
2023-01-22T11:05:22.197Z,1.39
2023-01-22T11:07:54.124Z,1.30
2023-01-22T11:10:38.234Z,1.51
2023-01-22T11:13:47.477Z,1.67
2023-01-22T11:16:21.098Z,1.85
2023-01-22T11:19:18.114Z,1.88
2023-01-22T11:21:55.452Z,2.12
2023-01-22T11:24:41.224Z,2.16
2023-01-22T11:27:41.158Z,2.16
2023-01-22T11:30:35.118Z,2.04
2023-01-22T11:33:34.416Z,1.86
2023-01-22T11:36:50.366Z,1.65
2023-01-22T11:39:32.676Z,1.56
2023-01-22T11:42:17.848Z,1.50
2023-01-22T11:44:55.999Z,1.34
2023-01-22T11:47:58.643Z,1.32
2023-01-22T11:50:43.998Z,1.31
2023-01-22T11:53:31.674Z,1.21
2023-01-22T11:56:25.405Z,1.09
2023-01-22T11:58:57.169Z,1.06
2023-01-22T12:01:35.764Z,0.90
2023-01-22T12:04:50.113Z,0.68
2023-01-22T12:07:46.000Z,0.71
2023-01-22T12:11:06.655Z,0.78
2023-01-22T12:14:27.194Z,0.84
2023-01-22T12:17:17.796Z,0.88
2023-01-22T12:20:04.728Z,0.90
2023-01-22T12:23:01.243Z,0.84
2023-01-22T12:25:47.183Z,0.93
2023-01-22T12:28:36.386Z,0.91
2023-01-22T12:31:23.227Z,0.91
2023-01-22T12:33:50.069Z,0.99
2023-01-22T12:36:23.915Z,1.02
2023-01-22T12:38:57.343Z,0.93
2023-01-22T12:41:48.584Z,0.92
2023-01-22T12:44:49.605Z,0.98
2023-01-22T12:47:25.858Z,0.94
2023-01-22T12:49:53.464Z,0.84
2023-01-22T12:52:37.845Z,0.94
2023-01-22T12:55:35.135Z,0.80
2023-01-22T12:58:03.551Z,0.89
2023-01-22T13:00:35.938Z,1.08
2023-01-22T13:03:31.065Z,1.10
2023-01-22T13:06:01.215Z,1.22
2023-01-22T13:08:43.564Z,1.26
2023-01-22T13:11:28.356Z,1.19
2023-01-22T13:14:27.127Z,1.04
2023-01-22T13:17:03.709Z,1.08
2023-01-22T13:19:42.563Z,1.01
2023-01-22T13:22:18.537Z,1.14
2023-01-22T13:24:57.746Z,1.27
2023-01-22T13:27:33.997Z,1.23
2023-01-22T13:30:31.209Z,1.35
2023-01-22T13:33:04.841Z,1.54
2023-01-22T13:35:31.666Z,1.65
2023-01-22T13:37:58.548Z,1.63
2023-01-22T13:40:28.702Z,1.57
2023-01-22T13:42:58.632Z,1.40
2023-01-22T13:45:30.517Z,1.58
2023-01-22T13:48:03.998Z,1.74
2023-01-22T13:50:32.179Z,1.82
2023-01-22T13:53:01.704Z,1.92
2023-01-22T13:55:30.599Z,2.08
2023-01-22T13:57:59.298Z,2.03
2023-01-22T14:00:35.273Z,2.07
2023-01-22T14:03:03.076Z,2.02
2023-01-22T14:05:34.664Z,1.98
2023-01-22T14:08:08.255Z,1.97
2023-01-22T14:10:35.228Z,1.82
2023-01-22T14:13:04.874Z,1.84
2023-01-22T14:15:32.952Z,1.79
2023-01-22T14:18:29.021Z,1.71
2023-01-22T14:20:55.782Z,1.59
2023-01-22T14:23:22.497Z,1.74
2023-01-22T14:25:52.680Z,1.73
2023-01-22T14:28:21.895Z,1.83
2023-01-22T14:30:49.404Z,1.92
2023-01-22T14:33:25.819Z,2.09
2023-01-22T14:35:53.730Z,2.30
2023-01-22T14:38:20.984Z,2.47
2023-01-22T14:40:47.913Z,2.58
2023-01-22T14:43:14.760Z,2.46
2023-01-22T14:45:44.257Z,2.38
2023-01-22T14:48:19.745Z,2.26
2023-01-22T14:50:47.832Z,2.10
2023-01-22T14:53:15.879Z,1.86
2023-01-22T14:55:43.287Z,1.63
2023-01-22T14:58:10.768Z,1.69
2023-01-22T15:00:39.033Z,1.62
2023-01-22T15:03:05.871Z,1.43
2023-01-22T15:05:35.336Z,1.36
2023-01-22T15:08:02.430Z,1.22
2023-01-22T15:10:29.266Z,1.19
2023-01-22T15:12:56.111Z,1.16
2023-01-22T15:15:27.020Z,1.00
2023-01-22T15:17:55.473Z,0.96
2023-01-22T15:20:22.609Z,0.77
2023-01-22T15:22:52.161Z,0.75
2023-01-22T15:25:19.182Z,0.61
2023-01-22T15:27:46.242Z,0.61
2023-01-22T15:30:14.273Z,0.62
2023-01-22T15:32:41.180Z,0.62
2023-01-22T15:35:08.502Z,0.54
2023-01-22T15:37:35.251Z,0.43
2023-01-22T15:40:02.471Z,0.33
2023-01-22T15:42:29.254Z,0.34
2023-01-22T15:44:56.065Z,0.06
2023-01-22T15:47:22.864Z,0.14
2023-01-22T15:49:49.630Z,0.26
2023-01-22T15:52:16.443Z,0.23
2023-01-22T15:54:43.187Z,-0.13
2023-01-22T15:57:09.928Z,0.00
2023-01-22T15:59:38.934Z,0.06
2023-01-22T16:02:06.226Z,0.01
2023-01-22T16:04:33.005Z,-0.09
2023-01-22T16:06:59.812Z,0.02
2023-01-22T16:09:26.631Z,0.06
2023-01-22T16:11:53.455Z,-0.03
2023-01-22T16:14:20.343Z,0.01
2023-01-22T16:16:47.155Z,0.06
2023-01-22T16:19:14.022Z,-0.03
2023-01-22T16:21:40.879Z,-0.03
2023-01-22T16:24:07.934Z,-0.06
2023-01-22T16:26:36.164Z,-0.03
2023-01-22T16:29:05.644Z,-0.06
2023-01-22T16:31:35.321Z,-0.06
2023-01-22T16:34:18.389Z,-0.10
2023-01-22T16:36:45.762Z,-0.04
2023-01-22T16:39:22.633Z,-0.07
2023-01-22T16:41:51.584Z,-0.04
2023-01-22T16:44:24.594Z,-0.03
2023-01-22T16:46:55.295Z,-0.12
2023-01-22T16:49:31.368Z,-0.12
2023-01-22T16:52:16.799Z,-0.09
2023-01-22T16:54:49.409Z,-0.11
2023-01-22T16:57:16.467Z,-0.12
2023-01-22T16:59:43.271Z,-0.15
2023-01-22T17:02:15.710Z,-0.23
2023-01-22T17:04:42.597Z,-0.22
2023-01-22T17:07:20.527Z,-0.29
2023-01-22T17:09:54.587Z,-0.26
2023-01-22T17:12:21.363Z,-0.25
2023-01-22T17:14:52.689Z,-0.38
2023-01-22T17:17:19.423Z,-0.47
2023-01-22T17:19:46.240Z,-0.39
2023-01-22T17:22:13.440Z,-0.46
2023-01-22T17:24:41.529Z,-0.41
2023-01-22T17:27:08.781Z,-0.45
2023-01-22T17:29:36.371Z,-0.42
2023-01-22T17:32:04.077Z,-0.53
2023-01-22T17:34:31.100Z,-0.46
2023-01-22T17:36:57.858Z,-0.44
2023-01-22T17:39:24.861Z,-0.38
2023-01-22T17:41:51.641Z,-0.38
2023-01-22T17:44:18.461Z,-0.45
2023-01-22T17:46:45.283Z,-0.38
2023-01-22T17:49:12.072Z,-0.41
2023-01-22T17:51:38.899Z,-0.49
2023-01-22T17:54:06.334Z,-0.39
2023-01-22T17:56:36.742Z,-0.35
2023-01-22T17:59:06.421Z,-0.45
2023-01-22T18:01:36.820Z,-0.35
2023-01-22T18:04:08.317Z,-0.35
2023-01-22T18:06:36.442Z,-0.44
2023-01-22T18:09:05.732Z,-0.35
2023-01-22T18:11:35.295Z,-0.29
2023-01-22T18:14:09.793Z,-0.32
2023-01-22T18:16:39.290Z,-0.33
2023-01-22T18:19:07.456Z,-0.38
2023-01-22T18:21:37.135Z,-0.43
2023-01-22T18:24:06.647Z,-0.43
2023-01-22T18:26:34.323Z,-0.39
2023-01-22T18:29:01.891Z,-0.44
2023-01-22T18:31:29.829Z,-0.36
2023-01-22T18:34:02.323Z,-0.41
2023-01-22T18:36:36.128Z,-0.61
2023-01-22T18:39:12.620Z,-0.52
2023-01-22T18:41:40.890Z,-0.52
2023-01-22T18:44:10.247Z,-0.43
2023-01-22T18:46:39.195Z,-0.52
2023-01-22T18:49:12.792Z,-0.45
2023-01-22T18:51:42.042Z,-0.45
2023-01-22T18:54:09.129Z,-0.48
2023-01-22T18:56:37.576Z,-0.59
2023-01-22T18:59:05.822Z,-0.66
2023-01-22T19:01:38.382Z,-0.63
2023-01-22T19:04:08.142Z,-0.70
2023-01-22T19:06:37.912Z,-0.70
2023-01-22T19:09:14.303Z,-0.69
2023-01-22T19:11:44.461Z,-0.61
2023-01-22T19:14:16.573Z,-0.61
2023-01-22T19:16:48.623Z,-0.57
2023-01-22T19:19:17.157Z,-0.53
2023-01-22T19:21:47.713Z,-0.53
2023-01-22T19:24:18.643Z,-0.59
2023-01-22T19:26:46.826Z,-0.58
2023-01-22T19:29:17.594Z,-0.54
2023-01-22T19:31:48.379Z,-0.51
2023-01-22T19:34:23.429Z,-0.48
2023-01-22T19:37:02.963Z,-0.49
2023-01-22T19:39:30.146Z,-0.45
2023-01-22T19:41:58.173Z,-0.49
2023-01-22T19:44:25.075Z,-0.46
2023-01-22T19:46:51.891Z,-0.53
2023-01-22T19:49:18.703Z,-0.47
2023-01-22T19:51:45.508Z,-0.49
2023-01-22T19:54:13.384Z,-0.48
2023-01-22T19:56:45.507Z,-0.51
2023-01-22T19:59:18.921Z,-0.46
2023-01-22T20:01:48.654Z,-0.47
2023-01-22T20:04:26.197Z,-0.58
2023-01-22T20:07:02.588Z,-0.54
2023-01-22T20:09:30.631Z,-0.55
2023-01-22T20:11:58.338Z,-0.63
2023-01-22T20:14:34.455Z,-0.65
2023-01-22T20:17:02.784Z,-0.59
2023-01-22T20:19:30.613Z,-0.61
2023-01-22T20:21:57.499Z,-0.63
2023-01-22T20:24:24.284Z,-0.73
2023-01-22T20:26:54.875Z,-0.69
2023-01-22T20:29:21.818Z,-0.76
2023-01-22T20:31:52.589Z,-0.77
2023-01-22T20:34:19.485Z,-0.78
2023-01-22T20:36:46.445Z,-0.81
2023-01-22T20:39:13.598Z,-0.89
2023-01-22T20:41:40.343Z,-0.91
2023-01-22T20:44:07.288Z,-0.92
2023-01-22T20:46:36.123Z,-1.04
2023-01-22T20:49:02.932Z,-1.12
2023-01-22T20:51:30.107Z,-1.21
2023-01-22T20:53:57.790Z,-1.22
2023-01-22T20:56:30.459Z,-1.29
2023-01-22T20:58:59.591Z,-1.33
2023-01-22T21:01:28.077Z,-1.43
2023-01-22T21:03:57.091Z,-1.48
2023-01-22T21:06:27.464Z,-1.56
2023-01-22T21:08:56.394Z,-1.55
2023-01-22T21:11:25.369Z,-1.59
2023-01-22T21:13:53.427Z,-1.71
2023-01-22T21:16:27.127Z,-1.83
2023-01-22T21:19:00.645Z,-2.15
2023-01-22T21:21:29.783Z,-2.31
2023-01-22T21:23:58.031Z,-2.38
2023-01-22T21:26:29.336Z,-2.46
2023-01-22T21:29:03.292Z,-2.44
2023-01-22T21:31:30.704Z,-2.58
2023-01-22T21:34:03.062Z,-2.58
2023-01-22T21:36:38.058Z,-2.67
2023-01-22T21:39:08.919Z,-2.66
2023-01-22T21:41:36.040Z,-2.62
2023-01-22T21:44:21.473Z,-2.74
2023-01-22T21:46:48.378Z,-2.82
2023-01-22T21:49:20.042Z,-2.73
2023-01-22T21:51:48.138Z,-2.88
2023-01-22T21:54:19.273Z,-2.93
2023-01-22T21:56:46.340Z,-2.93
2023-01-22T21:59:13.450Z,-2.87
2023-01-22T22:01:40.712Z,-2.97
2023-01-22T22:04:09.317Z,-2.89
2023-01-22T22:06:36.693Z,-2.88
2023-01-22T22:09:07.586Z,-2.77
2023-01-22T22:11:34.864Z,-2.75
2023-01-22T22:14:01.814Z,-2.74
2023-01-22T22:16:28.641Z,-2.74
2023-01-22T22:18:56.833Z,-2.70
2023-01-22T22:21:23.664Z,-2.81
2023-01-22T22:23:50.712Z,-2.70
2023-01-22T22:26:18.444Z,-2.80
2023-01-22T22:28:45.458Z,-2.84
2023-01-22T22:31:15.776Z,-2.71
2023-01-22T22:33:45.520Z,-2.67
2023-01-22T22:36:15.812Z,-2.70
2023-01-22T22:38:43.201Z,-2.62
2023-01-22T22:41:16.472Z,-2.61
2023-01-22T22:43:46.837Z,-2.58
2023-01-22T22:46:26.450Z,-2.60
2023-01-22T22:48:55.294Z,-2.52
2023-01-22T22:51:34.246Z,-2.55
2023-01-22T22:54:07.716Z,-2.47
2023-01-22T22:56:34.927Z,-2.55
2023-01-22T22:59:02.566Z,-2.51
2023-01-22T23:01:33.722Z,-2.44
2023-01-22T23:04:01.481Z,-2.39
2023-01-22T23:06:33.171Z,-2.38
2023-01-22T23:09:01.262Z,-2.44
2023-01-22T23:11:32.250Z,-2.39
2023-01-22T23:14:01.618Z,-2.30
2023-01-22T23:16:38.064Z,-2.39
2023-01-22T23:19:14.397Z,-2.42
2023-01-22T23:21:41.827Z,-2.29
2023-01-22T23:24:14.089Z,-2.34
2023-01-22T23:26:43.644Z,-2.29
2023-01-22T23:29:15.033Z,-2.35
2023-01-22T23:31:42.069Z,-2.24
2023-01-22T23:34:14.309Z,-2.28
2023-01-22T23:36:44.527Z,-2.41
2023-01-22T23:39:14.043Z,-2.23
2023-01-22T23:41:42.086Z,-2.18
2023-01-22T23:44:09.138Z,-2.14
2023-01-22T23:46:36.566Z,-2.16
2023-01-22T23:49:04.563Z,-2.28
2023-01-22T23:51:32.103Z,-2.06
2023-01-22T23:53:59.275Z,-2.10
2023-01-22T23:56:32.082Z,-2.11
2023-01-22T23:58:59.861Z,-1.97
